createdAt,value
2017-10-13T00:01:46.488Z,75.48
2017-10-13T00:04:13.027Z,75.78
2017-10-13T00:06:39.415Z,75.37
2017-10-13T00:09:05.896Z,75.10
2017-10-13T00:11:32.330Z,75.13
2017-10-13T00:13:59.584Z,75.45
2017-10-13T00:16:25.948Z,75.79
2017-10-13T00:18:52.436Z,76.25
2017-10-13T00:21:18.876Z,76.45
2017-10-13T00:23:45.425Z,76.46
2017-10-13T00:26:11.862Z,76.60
2017-10-13T00:28:38.307Z,75.85
2017-10-13T00:31:05.445Z,75.76
2017-10-13T00:33:31.881Z,76.02
2017-10-13T00:35:58.315Z,76.51
2017-10-13T00:38:24.751Z,76.95
2017-10-13T00:40:51.186Z,77.25
2017-10-13T00:43:17.620Z,76.47
2017-10-13T00:45:44.099Z,75.92
2017-10-13T00:48:11.309Z,75.60
2017-10-13T00:50:37.744Z,75.94
2017-10-13T00:53:04.140Z,76.51
2017-10-13T00:55:30.614Z,76.78
2017-10-13T00:57:57.001Z,77.05
2017-10-13T01:00:23.380Z,77.12
2017-10-13T01:02:49.816Z,76.77
2017-10-13T01:05:17.063Z,76.02
2017-10-13T01:07:43.504Z,76.11
2017-10-13T01:10:09.996Z,76.46
2017-10-13T01:12:36.464Z,76.91
2017-10-13T01:15:03.014Z,76.85
2017-10-13T01:17:29.447Z,76.38
2017-10-13T01:19:55.882Z,76.26
2017-10-13T01:22:23.138Z,76.31
2017-10-13T01:24:49.588Z,77.34
2017-10-13T01:27:16.007Z,78.08
2017-10-13T01:29:42.441Z,77.95
2017-10-13T01:32:08.878Z,77.32
2017-10-13T01:34:35.311Z,76.62
2017-10-13T01:37:01.745Z,76.19
2017-10-13T01:39:28.999Z,76.22
2017-10-13T01:41:55.436Z,76.80
2017-10-13T01:44:21.869Z,77.70
2017-10-13T01:46:48.314Z,78.02
2017-10-13T01:49:14.757Z,77.95
2017-10-13T01:51:41.173Z,77.31
2017-10-13T01:54:07.608Z,76.99
2017-10-13T01:56:34.862Z,77.28
2017-10-13T01:59:01.399Z,77.34
2017-10-13T02:01:27.835Z,77.04
2017-10-13T02:03:54.269Z,76.89
2017-10-13T02:06:20.703Z,76.92
2017-10-13T02:08:47.139Z,77.15
2017-10-13T02:11:13.594Z,77.46
2017-10-13T02:13:40.729Z,77.76
2017-10-13T02:16:07.172Z,77.39
2017-10-13T02:18:33.595Z,77.32
2017-10-13T02:20:59.980Z,77.21
2017-10-13T02:23:26.441Z,77.11
2017-10-13T02:25:52.904Z,76.99
2017-10-13T02:28:19.333Z,76.98
2017-10-13T02:30:46.536Z,76.94
2017-10-13T02:33:12.976Z,77.06
2017-10-13T02:35:39.457Z,77.11
2017-10-13T02:38:05.892Z,77.08
2017-10-13T02:40:32.326Z,77.35
2017-10-13T02:42:58.761Z,76.72
2017-10-13T02:45:25.196Z,76.40
2017-10-13T02:47:52.347Z,76.76
2017-10-13T02:50:18.732Z,77.24
2017-10-13T02:52:45.179Z,77.18
2017-10-13T02:55:11.652Z,77.34
2017-10-13T02:57:38.189Z,77.15
2017-10-13T03:00:04.624Z,77.01
2017-10-13T03:02:31.058Z,77.15
2017-10-13T03:04:58.210Z,77.46
2017-10-13T03:07:24.645Z,77.85
2017-10-13T03:09:51.080Z,77.67
2017-10-13T03:12:17.515Z,77.57
2017-10-13T03:14:43.952Z,77.78
2017-10-13T03:17:10.387Z,77.41
2017-10-13T03:19:36.819Z,77.28
2017-10-13T03:22:03.977Z,77.34
2017-10-13T03:24:30.410Z,78.11
2017-10-13T03:26:56.840Z,78.33
2017-10-13T03:29:23.221Z,78.14
2017-10-13T03:31:49.711Z,77.97
2017-10-13T03:34:16.149Z,76.99
2017-10-13T03:36:42.580Z,76.82
2017-10-13T03:39:09.732Z,76.99
2017-10-13T03:41:36.166Z,77.11
2017-10-13T03:44:02.608Z,77.23
2017-10-13T03:46:29.137Z,77.67
2017-10-13T03:48:55.572Z,77.38
2017-10-13T03:51:21.972Z,77.38
2017-10-13T03:53:48.391Z,77.50
2017-10-13T03:56:15.593Z,77.01
2017-10-13T03:58:41.966Z,76.99
2017-10-13T04:01:08.463Z,77.10
2017-10-13T04:03:34.898Z,77.02
2017-10-13T04:06:01.334Z,77.67
2017-10-13T04:08:27.768Z,78.14
2017-10-13T04:10:54.206Z,78.11
2017-10-13T04:13:21.344Z,77.94
2017-10-13T04:15:47.786Z,77.44
2017-10-13T04:18:14.224Z,77.56
2017-10-13T04:20:40.659Z,77.55
2017-10-13T04:23:07.092Z,77.29
2017-10-13T04:25:33.480Z,77.32
2017-10-13T04:27:59.860Z,77.12
2017-10-13T04:30:27.114Z,77.60
2017-10-13T04:32:53.548Z,77.88
2017-10-13T04:35:19.985Z,77.62
2017-10-13T04:37:46.418Z,77.95
2017-10-13T04:40:12.973Z,77.88
2017-10-13T04:42:39.391Z,77.47
2017-10-13T04:45:05.826Z,77.81
2017-10-13T04:47:32.978Z,77.81
2017-10-13T04:49:59.412Z,77.88
2017-10-13T04:52:25.846Z,78.16
2017-10-13T04:54:52.282Z,78.17
2017-10-13T04:57:18.716Z,77.52
2017-10-13T04:59:45.151Z,77.24
2017-10-13T05:02:11.588Z,77.00
2017-10-13T05:04:38.840Z,76.73
2017-10-13T05:07:05.275Z,75.70
2017-10-13T05:09:31.708Z,75.72
2017-10-13T05:11:58.144Z,75.61
2017-10-13T05:14:24.578Z,75.91
2017-10-13T05:16:51.013Z,74.87
2017-10-13T05:19:17.448Z,74.03
2017-10-13T05:21:44.703Z,74.08
2017-10-13T05:24:11.241Z,74.06
2017-10-13T05:26:37.674Z,73.50
2017-10-13T05:29:04.109Z,73.17
2017-10-13T05:31:30.544Z,73.03
2017-10-13T05:33:56.978Z,72.88
2017-10-13T05:36:23.414Z,72.63
2017-10-13T05:38:49.849Z,72.10
2017-10-13T05:41:16.282Z,71.82
2017-10-13T05:43:42.717Z,70.99
2017-10-13T05:46:09.358Z,70.86
2017-10-13T05:48:35.897Z,71.09
2017-10-13T05:51:03.252Z,71.11
2017-10-13T05:53:29.686Z,71.23
2017-10-13T05:55:56.120Z,71.58
2017-10-13T05:58:22.555Z,71.81
2017-10-13T06:00:48.992Z,71.84
2017-10-13T06:03:15.379Z,71.56
2017-10-13T06:05:41.812Z,71.34
2017-10-13T06:08:08.294Z,71.21
2017-10-13T06:10:34.729Z,71.12
2017-10-13T06:13:01.266Z,71.10
2017-10-13T06:15:27.701Z,71.11
2017-10-13T06:17:54.341Z,71.01
2017-10-13T06:20:20.776Z,71.00
2017-10-13T06:22:47.210Z,70.77
2017-10-13T06:25:13.645Z,70.73
2017-10-13T06:27:40.087Z,70.67
2017-10-13T06:30:06.925Z,70.33
2017-10-13T06:32:33.371Z,69.82
2017-10-13T06:34:59.793Z,69.30
2017-10-13T06:37:26.228Z,69.49
2017-10-13T06:39:52.769Z,69.15
2017-10-13T06:42:19.323Z,68.91
2017-10-13T06:44:45.737Z,68.33
2017-10-13T06:47:12.172Z,67.53
2017-10-13T06:49:38.612Z,66.85
2017-10-13T06:52:05.024Z,66.34
2017-10-13T06:54:31.477Z,65.74
2017-10-13T06:56:57.912Z,65.18
2017-10-13T06:59:24.346Z,65.39
2017-10-13T07:01:50.782Z,65.40
2017-10-13T07:04:17.235Z,63.64
2017-10-13T07:06:43.753Z,63.70
2017-10-13T07:09:10.206Z,63.23
2017-10-13T07:11:36.681Z,63.45
2017-10-13T07:14:03.057Z,63.45
2017-10-13T07:16:29.597Z,63.01
2017-10-13T07:18:55.988Z,62.91
2017-10-13T07:21:22.464Z,63.02
2017-10-13T07:23:49.636Z,62.74
2017-10-13T07:26:15.993Z,63.08
2017-10-13T07:28:42.486Z,62.10
2017-10-13T07:31:08.940Z,62.64
2017-10-13T07:33:35.354Z,61.80
2017-10-13T07:36:01.791Z,61.24
2017-10-13T07:38:28.159Z,60.69
2017-10-13T07:40:54.658Z,59.66
2017-10-13T07:43:21.047Z,59.20
2017-10-13T07:45:47.521Z,58.40
2017-10-13T07:48:13.990Z,56.91
2017-10-13T07:50:40.491Z,57.49
2017-10-13T07:53:06.935Z,56.23
2017-10-13T07:55:33.372Z,56.20
2017-10-13T07:57:59.805Z,55.47
2017-10-13T08:00:26.242Z,56.16
2017-10-13T08:02:52.675Z,55.81
2017-10-13T08:05:19.109Z,54.93
2017-10-13T08:07:45.545Z,55.87
2017-10-13T08:10:11.982Z,56.23
2017-10-13T08:12:38.413Z,53.53
2017-10-13T08:15:04.854Z,53.47
2017-10-13T08:17:31.239Z,52.62
2017-10-13T08:19:57.752Z,52.72
2017-10-13T08:22:24.259Z,53.32
2017-10-13T08:24:50.792Z,52.42
2017-10-13T08:27:17.193Z,51.81
2017-10-13T08:29:43.661Z,52.11
2017-10-13T08:32:10.153Z,51.55
2017-10-13T08:34:36.588Z,51.41
2017-10-13T08:37:03.050Z,51.07
2017-10-13T08:39:29.499Z,51.23
2017-10-13T08:41:56.096Z,50.00
2017-10-13T08:44:22.475Z,51.12
2017-10-13T08:46:48.909Z,51.41
2017-10-13T08:49:15.449Z,50.22
2017-10-13T08:51:41.986Z,49.71
2017-10-13T08:54:08.419Z,49.41
2017-10-13T08:56:34.817Z,49.09
2017-10-13T08:59:01.291Z,49.98
2017-10-13T09:01:27.680Z,48.98
2017-10-13T09:03:54.178Z,47.27
2017-10-13T09:06:20.592Z,47.76
2017-10-13T09:08:47.028Z,47.93
2017-10-13T09:11:13.463Z,47.49
2017-10-13T09:13:39.832Z,46.14
2017-10-13T09:16:06.285Z,46.66
2017-10-13T09:18:32.766Z,46.51
2017-10-13T09:20:59.218Z,46.65
2017-10-13T09:23:25.588Z,46.90
2017-10-13T09:25:52.026Z,47.26
2017-10-13T09:28:18.505Z,45.51
2017-10-13T09:30:44.892Z,46.00
2017-10-13T09:33:11.376Z,46.23
2017-10-13T09:35:37.809Z,46.19
2017-10-13T09:38:04.551Z,46.81
2017-10-13T09:40:30.987Z,46.09
2017-10-13T09:42:57.421Z,46.60
2017-10-13T09:45:23.858Z,46.50
2017-10-13T09:47:50.312Z,46.75
2017-10-13T09:50:16.727Z,46.10
2017-10-13T09:52:43.161Z,46.29
2017-10-13T09:55:09.596Z,46.25
2017-10-13T09:57:35.988Z,46.13
2017-10-13T10:00:02.454Z,45.12
2017-10-13T10:02:29.208Z,44.69
2017-10-13T10:04:55.743Z,45.59
2017-10-13T10:07:22.182Z,43.86
2017-10-13T10:09:48.614Z,43.30
2017-10-13T10:12:15.355Z,42.82
2017-10-13T10:14:41.791Z,43.67
2017-10-13T10:17:08.225Z,44.08
2017-10-13T10:19:34.607Z,43.19
2017-10-13T10:22:01.095Z,43.81
2017-10-13T10:24:27.530Z,43.54
2017-10-13T10:26:54.029Z,42.77
2017-10-13T10:29:20.503Z,41.96
2017-10-13T10:31:46.936Z,41.54
2017-10-13T10:34:14.190Z,40.79
2017-10-13T10:39:13.101Z,41.99
2017-10-13T10:41:39.540Z,40.95
2017-10-13T10:44:06.035Z,40.87
2017-10-13T10:46:32.714Z,40.63
2017-10-13T10:48:59.150Z,40.75
2017-10-13T10:51:25.583Z,39.66
2017-10-13T10:53:51.971Z,40.01
2017-10-13T10:56:18.452Z,40.27
2017-10-13T10:58:44.887Z,37.93
2017-10-13T11:01:11.425Z,37.41
2017-10-13T11:03:37.809Z,36.57
2017-10-13T11:06:04.295Z,37.59
2017-10-13T11:08:30.729Z,36.97
2017-10-13T11:10:57.163Z,36.77
2017-10-13T11:15:55.051Z,36.00
2017-10-13T11:18:21.486Z,36.25
2017-10-13T11:20:47.921Z,36.00
2017-10-13T11:23:14.356Z,35.48
2017-10-13T11:25:40.790Z,35.22
2017-10-13T11:28:07.225Z,34.21
2017-10-13T11:30:33.659Z,34.05
2017-10-13T11:33:00.043Z,34.26
2017-10-13T11:35:26.529Z,33.64
2017-10-13T11:37:52.988Z,33.80
2017-10-13T11:40:19.378Z,33.40
2017-10-13T11:42:45.822Z,33.40
2017-10-13T11:45:12.266Z,33.14
2017-10-13T11:47:38.708Z,31.69
2017-10-13T11:50:05.651Z,31.41
2017-10-13T11:52:32.037Z,31.56
2017-10-13T11:54:58.512Z,32.57
2017-10-13T11:57:24.955Z,31.99
2017-10-13T11:59:51.390Z,32.39
2017-10-13T12:02:17.826Z,30.80
2017-10-13T12:04:44.259Z,32.22
2017-10-13T12:07:10.694Z,32.92
2017-10-13T12:09:37.128Z,33.44
2017-10-13T12:12:03.563Z,34.36
2017-10-13T12:14:30.679Z,35.93
2017-10-13T12:16:57.267Z,35.95
2017-10-13T12:19:23.789Z,33.59
2017-10-13T12:21:50.384Z,33.01
2017-10-13T12:24:16.762Z,31.58
2017-10-13T12:26:43.401Z,31.51
2017-10-13T12:29:09.787Z,30.77
2017-10-13T12:34:08.747Z,30.27
2017-10-13T12:36:35.181Z,29.54
2017-10-13T12:39:01.617Z,29.68
2017-10-13T12:41:28.154Z,29.41
2017-10-13T12:43:54.571Z,28.90
2017-10-13T12:46:21.024Z,29.08
2017-10-13T12:51:00.852Z,30.45
2017-10-13T12:58:30.090Z,30.22
2017-10-13T13:03:27.789Z,28.00
2017-10-13T13:05:54.208Z,27.94
2017-10-13T13:08:20.585Z,27.62
2017-10-13T13:10:47.076Z,29.02
2017-10-13T13:13:14.534Z,29.18
2017-10-13T13:15:40.969Z,28.96
2017-10-13T13:18:07.506Z,27.72
2017-10-13T13:20:35.727Z,27.78
2017-10-13T13:23:02.220Z,27.43
2017-10-13T13:25:28.653Z,28.01
2017-10-13T13:27:55.029Z,28.01
2017-10-13T13:30:21.526Z,27.97
2017-10-13T13:32:50.584Z,28.10
2017-10-13T13:35:17.049Z,28.60
2017-10-13T13:37:43.400Z,27.60
2017-10-13T13:40:09.824Z,27.07
2017-10-13T13:42:36.359Z,27.26
2017-10-13T13:45:02.793Z,26.93
2017-10-13T13:47:29.332Z,26.35
2017-10-13T13:49:55.765Z,26.75
2017-10-13T13:52:22.278Z,26.78
2017-10-13T13:54:48.682Z,26.38
2017-10-13T13:57:15.127Z,26.41
2017-10-13T13:59:41.609Z,26.68
2017-10-13T14:02:08.146Z,26.59
2017-10-13T14:04:34.516Z,27.46
2017-10-13T14:07:01.657Z,27.58
2017-10-13T14:09:28.794Z,27.41
2017-10-13T14:11:55.217Z,26.89
2017-10-13T14:14:21.685Z,27.37
2017-10-13T14:16:48.085Z,27.72
2017-10-13T14:19:14.467Z,28.67
2017-10-13T14:21:40.955Z,29.30
2017-10-13T14:24:07.394Z,30.18
2017-10-13T14:26:33.824Z,31.36
2017-10-13T14:29:01.160Z,32.76
2017-10-13T14:31:28.300Z,33.53
2017-10-13T14:33:54.741Z,34.87
2017-10-13T14:36:21.185Z,35.39
2017-10-13T14:38:47.760Z,36.04
2017-10-13T14:41:14.792Z,36.45
2017-10-13T14:43:41.325Z,36.98
2017-10-13T14:46:08.239Z,36.91
2017-10-13T14:48:34.727Z,36.43
2017-10-13T14:51:01.142Z,36.76
2017-10-13T14:53:27.915Z,37.03
2017-10-13T14:55:54.358Z,37.04
2017-10-13T14:58:20.733Z,37.11
2017-10-13T15:15:56.456Z,39.51
2017-10-13T15:25:56.995Z,39.73
2017-10-13T15:28:23.526Z,40.27
2017-10-13T15:30:50.000Z,40.49
2017-10-13T15:33:16.346Z,41.21
2017-10-13T15:35:42.783Z,41.38
2017-10-13T15:38:09.217Z,41.90
2017-10-13T15:40:35.651Z,41.82
2017-10-13T15:43:02.087Z,42.36
2017-10-13T15:45:28.521Z,42.87
2017-10-13T15:47:54.955Z,43.09
2017-10-13T15:50:21.414Z,43.79
2017-10-13T15:52:47.825Z,43.68
2017-10-13T15:55:14.259Z,43.89
2017-10-13T15:57:40.694Z,44.40
2017-10-13T16:00:07.075Z,44.86
2017-10-13T16:02:33.565Z,45.40
2017-10-13T16:04:59.898Z,45.61
2017-10-13T16:07:26.331Z,45.79
2017-10-13T16:09:52.731Z,46.05
2017-10-13T16:12:19.918Z,46.31
2017-10-13T16:14:46.297Z,46.64
2017-10-13T16:17:12.638Z,46.88
2017-10-13T16:19:39.119Z,47.15
2017-10-13T16:22:05.568Z,47.46
2017-10-13T16:24:32.091Z,47.96
2017-10-13T16:26:58.528Z,47.99
2017-10-13T16:29:25.783Z,47.90
2017-10-13T16:31:52.238Z,47.87
2017-10-13T16:34:18.598Z,47.76
2017-10-13T16:36:45.086Z,47.69
2017-10-13T16:39:11.520Z,47.28
2017-10-13T16:41:37.955Z,47.32
2017-10-13T16:44:04.390Z,47.08
2017-10-13T16:46:31.560Z,47.12
2017-10-13T16:48:57.976Z,46.87
2017-10-13T16:51:24.421Z,46.68
2017-10-13T16:53:50.947Z,46.16
2017-10-13T16:56:17.383Z,46.17
2017-10-13T16:58:43.765Z,45.71
2017-10-13T17:01:10.255Z,45.87
2017-10-13T17:03:37.302Z,45.90
2017-10-13T17:06:03.735Z,46.18
2017-10-13T17:08:30.172Z,46.53
2017-10-13T17:10:56.607Z,46.66
2017-10-13T17:13:23.040Z,46.77
2017-10-13T17:15:49.475Z,46.97
2017-10-13T17:18:15.912Z,47.26
2017-10-13T17:20:43.061Z,47.41
2017-10-13T17:23:09.516Z,47.80
2017-10-13T17:25:36.036Z,48.14
2017-10-13T17:28:02.468Z,48.54
2017-10-13T17:30:29.005Z,48.54
2017-10-13T17:32:55.384Z,48.98
2017-10-13T17:35:21.972Z,49.03
2017-10-13T17:37:48.925Z,49.45
2017-10-13T17:40:15.307Z,49.63
2017-10-13T17:42:41.694Z,49.70
2017-10-13T17:45:08.126Z,49.94
2017-10-13T17:47:34.562Z,50.13
2017-10-13T17:50:01.014Z,50.40
2017-10-13T17:52:27.431Z,50.76
2017-10-13T17:54:54.629Z,51.03
2017-10-13T17:57:21.119Z,51.27
2017-10-13T17:59:47.554Z,51.33
2017-10-13T18:02:14.092Z,51.41
2017-10-13T18:04:40.526Z,51.62
2017-10-13T18:07:06.961Z,51.72
2017-10-13T18:09:33.343Z,51.99
2017-10-13T18:12:00.548Z,51.88
2017-10-13T18:14:27.000Z,52.24
2017-10-13T18:16:53.495Z,52.24
2017-10-13T18:19:19.958Z,52.47
2017-10-13T18:21:46.388Z,52.55
2017-10-13T18:24:12.844Z,52.80
2017-10-13T18:26:39.361Z,53.15
2017-10-13T18:29:06.512Z,53.36
2017-10-13T18:31:32.949Z,53.40
2017-10-13T18:33:59.402Z,53.41
2017-10-13T18:36:25.785Z,53.31
2017-10-13T18:38:52.251Z,53.39
2017-10-13T18:41:18.615Z,53.60
2017-10-13T18:43:45.122Z,53.65
2017-10-13T18:46:12.222Z,53.59
2017-10-13T18:48:38.665Z,53.59
2017-10-13T18:51:05.141Z,53.77
2017-10-13T18:53:31.577Z,53.78
2017-10-13T18:55:58.100Z,53.91
2017-10-13T18:58:24.544Z,54.20
2017-10-13T19:00:50.985Z,54.23
2017-10-13T19:03:18.238Z,54.38
2017-10-13T19:05:44.623Z,54.33
2017-10-13T19:08:11.108Z,54.59
2017-10-13T19:10:37.564Z,54.77
2017-10-13T19:13:04.079Z,55.04
2017-10-13T19:15:30.514Z,55.33
2017-10-13T19:17:56.952Z,55.47
2017-10-13T19:20:24.103Z,55.31
2017-10-13T19:22:50.537Z,55.40
2017-10-13T19:25:16.972Z,55.56
2017-10-13T19:27:43.405Z,55.57
2017-10-13T19:30:09.845Z,55.76
2017-10-13T19:32:36.278Z,55.84
2017-10-13T19:35:02.814Z,56.11
2017-10-13T19:37:29.863Z,56.56
2017-10-13T19:39:56.299Z,56.86
2017-10-13T19:42:22.740Z,56.60
2017-10-13T19:44:49.167Z,56.71
2017-10-13T19:47:15.547Z,56.69
2017-10-13T19:49:42.035Z,56.88
2017-10-13T19:52:08.478Z,56.68
2017-10-13T19:54:35.623Z,56.86
2017-10-13T19:57:02.057Z,56.90
2017-10-13T19:59:28.491Z,57.03
2017-10-13T20:01:54.881Z,57.28
2017-10-13T20:04:21.361Z,57.20
2017-10-13T20:06:47.795Z,57.27
2017-10-13T20:09:14.230Z,57.23
2017-10-13T20:11:41.382Z,56.83
2017-10-13T20:14:07.817Z,57.06
2017-10-13T20:16:34.181Z,57.39
2017-10-13T20:19:00.634Z,57.58
2017-10-13T20:21:27.066Z,57.45
2017-10-13T20:23:53.560Z,57.46
2017-10-13T20:26:20.093Z,57.31
2017-10-13T20:28:47.146Z,57.35
2017-10-13T20:31:13.536Z,56.72
2017-10-13T20:33:40.003Z,56.66
2017-10-13T20:36:06.447Z,56.79
2017-10-13T20:38:32.883Z,56.59
2017-10-13T20:40:59.318Z,56.83
2017-10-13T20:43:25.757Z,56.94
2017-10-13T20:45:52.903Z,56.61
2017-10-13T20:48:19.338Z,56.77
2017-10-13T20:50:45.775Z,56.73
2017-10-13T20:53:12.227Z,56.82
2017-10-13T20:55:38.591Z,56.89
2017-10-13T20:58:05.077Z,56.80
2017-10-13T21:00:31.615Z,56.90
2017-10-13T21:02:58.665Z,57.14
2017-10-13T21:05:25.115Z,57.02
2017-10-13T21:07:51.524Z,57.41
2017-10-13T21:10:17.970Z,57.57
2017-10-13T21:12:44.404Z,57.07
2017-10-13T21:15:10.839Z,57.78
2017-10-13T21:17:37.221Z,57.72
2017-10-13T21:20:04.425Z,57.84
2017-10-13T21:22:30.860Z,58.19
2017-10-13T21:24:57.313Z,58.28
2017-10-13T21:27:23.729Z,58.26
2017-10-13T21:29:50.165Z,58.24
2017-10-13T21:32:16.599Z,58.40
2017-10-13T21:34:43.036Z,58.20
2017-10-13T21:37:10.288Z,58.18
2017-10-13T21:39:36.722Z,58.10
2017-10-13T21:42:03.157Z,58.36
2017-10-13T21:44:29.592Z,58.39
2017-10-13T21:46:56.027Z,58.25
2017-10-13T21:49:22.465Z,58.45
2017-10-13T21:51:48.897Z,58.62
2017-10-13T21:54:16.000Z,58.61
2017-10-13T21:56:42.431Z,58.58
2017-10-13T21:59:08.917Z,58.62
2017-10-13T22:01:35.352Z,58.73
2017-10-13T22:04:01.789Z,58.83
2017-10-13T22:06:28.222Z,58.70
2017-10-13T22:08:54.612Z,59.08
2017-10-13T22:11:21.911Z,59.29
2017-10-13T22:13:48.364Z,59.34
2017-10-13T22:16:14.714Z,59.48
2017-10-13T22:18:41.218Z,59.42
2017-10-13T22:21:07.653Z,59.50
2017-10-13T22:23:34.085Z,59.68
2017-10-13T22:26:00.523Z,59.86
2017-10-13T22:28:27.777Z,59.72
2017-10-13T22:30:54.227Z,59.51
2017-10-13T22:33:20.658Z,59.53
2017-10-13T22:35:47.079Z,59.62
2017-10-13T22:38:13.513Z,59.85
2017-10-13T22:40:39.993Z,59.47
2017-10-13T22:43:06.480Z,59.33
2017-10-13T22:45:33.636Z,59.65
2017-10-13T23:00:43.376Z,59.55
2017-10-13T23:03:09.810Z,59.45
2017-10-13T23:05:36.231Z,59.44
2017-10-13T23:08:03.479Z,59.67
2017-10-13T23:10:29.920Z,59.63
2017-10-13T23:12:56.387Z,59.84
2017-10-13T23:15:22.781Z,60.07
2017-10-13T23:17:49.194Z,60.10
2017-10-13T23:20:15.618Z,60.01
2017-10-13T23:22:42.108Z,59.54
2017-10-13T23:25:09.259Z,59.85
2017-10-13T23:27:35.695Z,59.89
2017-10-13T23:30:02.129Z,60.07
2017-10-13T23:32:28.564Z,59.82
2017-10-13T23:34:55.047Z,59.76
2017-10-13T23:37:21.535Z,59.99
2017-10-13T23:39:47.931Z,60.29
2017-10-13T23:42:15.224Z,60.39
2017-10-13T23:44:41.660Z,60.38
2017-10-13T23:47:08.094Z,60.48
2017-10-13T23:49:34.530Z,60.49
2017-10-13T23:52:00.912Z,60.50
2017-10-13T23:54:27.355Z,60.67
2017-10-13T23:56:53.832Z,60.89
2017-10-13T23:59:21.104Z,60.83
